sensor_id;sensor_type;location;lat;lon;timestamp;P1;durP1;ratioP1;P2;durP2;ratioP2
44189;SDS011;29856;52.144;5.430;2022-12-17T00:01:00;58.55;;;31.63;;
44189;SDS011;29856;52.144;5.430;2022-12-17T00:03:27;60.75;;;33.53;;
44189;SDS011;29856;52.144;5.430;2022-12-17T00:05:52;61.53;;;33.28;;
44189;SDS011;29856;52.144;5.430;2022-12-17T00:08:17;61.10;;;32.63;;
44189;SDS011;29856;52.144;5.430;2022-12-17T00:10:43;60.90;;;34.17;;
44189;SDS011;29856;52.144;5.430;2022-12-17T00:13:21;58.03;;;33.33;;
44189;SDS011;29856;52.144;5.430;2022-12-17T00:15:53;62.28;;;35.60;;
44189;SDS011;29856;52.144;5.430;2022-12-17T00:18:18;57.63;;;32.80;;
44189;SDS011;29856;52.144;5.430;2022-12-17T00:20:50;65.72;;;35.08;;
44189;SDS011;29856;52.144;5.430;2022-12-17T00:23:25;61.30;;;32.88;;
44189;SDS011;29856;52.144;5.430;2022-12-17T00:25:51;61.75;;;34.92;;
44189;SDS011;29856;52.144;5.430;2022-12-17T00:28:18;57.92;;;31.77;;
44189;SDS011;29856;52.144;5.430;2022-12-17T00:30:49;57.53;;;32.75;;
44189;SDS011;29856;52.144;5.430;2022-12-17T00:33:15;58.20;;;31.23;;
44189;SDS011;29856;52.144;5.430;2022-12-17T00:35:40;59.30;;;31.70;;
44189;SDS011;29856;52.144;5.430;2022-12-17T00:38:06;55.78;;;31.30;;
44189;SDS011;29856;52.144;5.430;2022-12-17T00:40:31;56.00;;;32.10;;
44189;SDS011;29856;52.144;5.430;2022-12-17T00:43:00;54.38;;;31.02;;
44189;SDS011;29856;52.144;5.430;2022-12-17T00:45:27;57.35;;;32.38;;
44189;SDS011;29856;52.144;5.430;2022-12-17T00:47:53;57.78;;;30.00;;
44189;SDS011;29856;52.144;5.430;2022-12-17T00:50:18;56.58;;;32.28;;
44189;SDS011;29856;52.144;5.430;2022-12-17T00:52:44;58.42;;;31.40;;
44189;SDS011;29856;52.144;5.430;2022-12-17T00:55:09;53.97;;;30.58;;
44189;SDS011;29856;52.144;5.430;2022-12-17T00:57:35;52.90;;;29.30;;
44189;SDS011;29856;52.144;5.430;2022-12-17T01:00:00;54.40;;;30.25;;
44189;SDS011;29856;52.144;5.430;2022-12-17T01:02:26;56.65;;;31.45;;
44189;SDS011;29856;52.144;5.430;2022-12-17T01:04:51;51.20;;;29.45;;
44189;SDS011;29856;52.144;5.430;2022-12-17T01:07:17;51.70;;;28.45;;
44189;SDS011;29856;52.144;5.430;2022-12-17T01:09:42;55.50;;;30.48;;
44189;SDS011;29856;52.144;5.430;2022-12-17T01:12:08;51.47;;;29.83;;
44189;SDS011;29856;52.144;5.430;2022-12-17T01:14:33;52.35;;;29.05;;
44189;SDS011;29856;52.144;5.430;2022-12-17T01:16:58;51.83;;;28.27;;
44189;SDS011;29856;52.144;5.430;2022-12-17T01:19:24;50.50;;;28.60;;
44189;SDS011;29856;52.144;5.430;2022-12-17T01:21:50;54.58;;;31.33;;
44189;SDS011;29856;52.144;5.430;2022-12-17T01:24:15;51.72;;;30.38;;
44189;SDS011;29856;52.144;5.430;2022-12-17T01:26:41;60.65;;;32.33;;
44189;SDS011;29856;52.144;5.430;2022-12-17T01:29:06;55.33;;;31.45;;
44189;SDS011;29856;52.144;5.430;2022-12-17T01:31:32;54.70;;;31.15;;
44189;SDS011;29856;52.144;5.430;2022-12-17T01:33:57;54.05;;;32.17;;
44189;SDS011;29856;52.144;5.430;2022-12-17T01:36:23;54.53;;;30.88;;
44189;SDS011;29856;52.144;5.430;2022-12-17T01:38:48;52.60;;;30.38;;
44189;SDS011;29856;52.144;5.430;2022-12-17T01:41:14;60.13;;;34.70;;
44189;SDS011;29856;52.144;5.430;2022-12-17T01:43:39;64.25;;;33.72;;
44189;SDS011;29856;52.144;5.430;2022-12-17T01:46:05;62.60;;;34.60;;
44189;SDS011;29856;52.144;5.430;2022-12-17T01:48:43;62.53;;;31.75;;
44189;SDS011;29856;52.144;5.430;2022-12-17T01:51:11;57.25;;;31.45;;
44189;SDS011;29856;52.144;5.430;2022-12-17T01:53:46;54.42;;;30.55;;
44189;SDS011;29856;52.144;5.430;2022-12-17T01:56:15;59.17;;;32.72;;
44189;SDS011;29856;52.144;5.430;2022-12-17T01:58:41;57.50;;;31.85;;
44189;SDS011;29856;52.144;5.430;2022-12-17T02:01:07;57.45;;;30.88;;
44189;SDS011;29856;52.144;5.430;2022-12-17T02:03:32;54.17;;;31.98;;
44189;SDS011;29856;52.144;5.430;2022-12-17T02:06:18;54.58;;;30.08;;
44189;SDS011;29856;52.144;5.430;2022-12-17T02:11:41;51.05;;;29.95;;
44189;SDS011;29856;52.144;5.430;2022-12-17T02:14:19;54.08;;;27.67;;
44189;SDS011;29856;52.144;5.430;2022-12-17T02:16:51;51.70;;;29.15;;
44189;SDS011;29856;52.144;5.430;2022-12-17T02:19:29;49.35;;;28.05;;
44189;SDS011;29856;52.144;5.430;2022-12-17T02:22:26;54.63;;;29.30;;
44189;SDS011;29856;52.144;5.430;2022-12-17T02:24:57;52.38;;;29.30;;
44189;SDS011;29856;52.144;5.430;2022-12-17T02:27:29;53.63;;;29.33;;
44189;SDS011;29856;52.144;5.430;2022-12-17T02:29:56;47.33;;;27.33;;
44189;SDS011;29856;52.144;5.430;2022-12-17T02:32:26;52.50;;;28.73;;
44189;SDS011;29856;52.144;5.430;2022-12-17T02:34:52;56.10;;;31.48;;
44189;SDS011;29856;52.144;5.430;2022-12-17T02:37:18;55.72;;;31.35;;
44189;SDS011;29856;52.144;5.430;2022-12-17T02:39:44;50.70;;;28.63;;
44189;SDS011;29856;52.144;5.430;2022-12-17T02:42:09;53.88;;;29.58;;
44189;SDS011;29856;52.144;5.430;2022-12-17T02:44:35;52.50;;;28.80;;
44189;SDS011;29856;52.144;5.430;2022-12-17T02:47:03;55.22;;;31.33;;
44189;SDS011;29856;52.144;5.430;2022-12-17T02:49:31;52.35;;;30.40;;
44189;SDS011;29856;52.144;5.430;2022-12-17T02:51:56;57.85;;;31.35;;
44189;SDS011;29856;52.144;5.430;2022-12-17T02:54:22;48.13;;;26.80;;
44189;SDS011;29856;52.144;5.430;2022-12-17T02:56:52;53.28;;;28.90;;
44189;SDS011;29856;52.144;5.430;2022-12-17T02:59:18;52.28;;;29.23;;
44189;SDS011;29856;52.144;5.430;2022-12-17T03:01:43;56.97;;;30.88;;
44189;SDS011;29856;52.144;5.430;2022-12-17T03:04:09;50.20;;;28.73;;
44189;SDS011;29856;52.144;5.430;2022-12-17T03:06:34;51.33;;;29.55;;
44189;SDS011;29856;52.144;5.430;2022-12-17T03:09:00;51.65;;;28.55;;
44189;SDS011;29856;52.144;5.430;2022-12-17T03:11:29;52.10;;;30.08;;
44189;SDS011;29856;52.144;5.430;2022-12-17T03:13:54;55.20;;;31.45;;
44189;SDS011;29856;52.144;5.430;2022-12-17T03:16:23;52.03;;;29.60;;
44189;SDS011;29856;52.144;5.430;2022-12-17T03:18:48;46.25;;;26.60;;
44189;SDS011;29856;52.144;5.430;2022-12-17T03:21:14;50.08;;;29.73;;
44189;SDS011;29856;52.144;5.430;2022-12-17T03:23:39;51.35;;;30.70;;
44189;SDS011;29856;52.144;5.430;2022-12-17T03:26:05;50.28;;;30.02;;
44189;SDS011;29856;52.144;5.430;2022-12-17T03:28:30;54.50;;;31.92;;
44189;SDS011;29856;52.144;5.430;2022-12-17T03:30:56;53.55;;;31.60;;
44189;SDS011;29856;52.144;5.430;2022-12-17T03:33:23;49.95;;;30.23;;
44189;SDS011;29856;52.144;5.430;2022-12-17T03:35:51;52.50;;;31.23;;
44189;SDS011;29856;52.144;5.430;2022-12-17T03:38:17;41.40;;;26.33;;
44189;SDS011;29856;52.144;5.430;2022-12-17T03:40:43;55.13;;;33.20;;
44189;SDS011;29856;52.144;5.430;2022-12-17T03:43:14;51.85;;;31.48;;
44189;SDS011;29856;52.144;5.430;2022-12-17T03:45:40;47.55;;;28.92;;
44189;SDS011;29856;52.144;5.430;2022-12-17T03:48:09;48.83;;;31.20;;
44189;SDS011;29856;52.144;5.430;2022-12-17T03:50:39;47.85;;;29.52;;
44189;SDS011;29856;52.144;5.430;2022-12-17T03:53:04;47.55;;;29.75;;
44189;SDS011;29856;52.144;5.430;2022-12-17T03:55:30;50.33;;;30.98;;
44189;SDS011;29856;52.144;5.430;2022-12-17T03:57:55;54.33;;;31.98;;
44189;SDS011;29856;52.144;5.430;2022-12-17T04:00:21;46.15;;;28.27;;
44189;SDS011;29856;52.144;5.430;2022-12-17T04:02:46;52.30;;;32.00;;
44189;SDS011;29856;52.144;5.430;2022-12-17T04:05:12;52.42;;;31.45;;
44189;SDS011;29856;52.144;5.430;2022-12-17T04:07:37;52.53;;;31.55;;
44189;SDS011;29856;52.144;5.430;2022-12-17T04:10:03;47.55;;;29.02;;
44189;SDS011;29856;52.144;5.430;2022-12-17T04:12:29;46.30;;;28.90;;
44189;SDS011;29856;52.144;5.430;2022-12-17T04:14:54;49.63;;;30.50;;
44189;SDS011;29856;52.144;5.430;2022-12-17T04:17:19;49.65;;;31.67;;
44189;SDS011;29856;52.144;5.430;2022-12-17T04:19:45;48.83;;;30.58;;
44189;SDS011;29856;52.144;5.430;2022-12-17T04:22:10;57.75;;;32.03;;
44189;SDS011;29856;52.144;5.430;2022-12-17T04:24:36;50.80;;;31.73;;
44189;SDS011;29856;52.144;5.430;2022-12-17T04:27:01;51.13;;;31.60;;
44189;SDS011;29856;52.144;5.430;2022-12-17T04:29:27;49.28;;;30.83;;
44189;SDS011;29856;52.144;5.430;2022-12-17T04:31:52;43.28;;;27.70;;
44189;SDS011;29856;52.144;5.430;2022-12-17T04:34:18;46.97;;;29.48;;
44189;SDS011;29856;52.144;5.430;2022-12-17T04:36:43;48.33;;;30.85;;
44189;SDS011;29856;52.144;5.430;2022-12-17T04:39:09;48.53;;;30.38;;
44189;SDS011;29856;52.144;5.430;2022-12-17T04:41:34;50.20;;;31.17;;
44189;SDS011;29856;52.144;5.430;2022-12-17T04:43:59;43.67;;;27.75;;
44189;SDS011;29856;52.144;5.430;2022-12-17T04:46:25;49.15;;;29.75;;
44189;SDS011;29856;52.144;5.430;2022-12-17T04:48:50;54.03;;;32.67;;
44189;SDS011;29856;52.144;5.430;2022-12-17T04:51:16;54.70;;;33.15;;
44189;SDS011;29856;52.144;5.430;2022-12-17T04:53:41;50.72;;;31.15;;
44189;SDS011;29856;52.144;5.430;2022-12-17T04:56:07;50.90;;;30.75;;
44189;SDS011;29856;52.144;5.430;2022-12-17T04:58:32;47.38;;;29.63;;
44189;SDS011;29856;52.144;5.430;2022-12-17T05:00:58;55.22;;;33.58;;
44189;SDS011;29856;52.144;5.430;2022-12-17T05:03:23;55.53;;;32.22;;
44189;SDS011;29856;52.144;5.430;2022-12-17T05:05:49;55.10;;;32.53;;
44189;SDS011;29856;52.144;5.430;2022-12-17T05:08:14;45.13;;;27.70;;
44189;SDS011;29856;52.144;5.430;2022-12-17T05:10:40;51.03;;;30.05;;
44189;SDS011;29856;52.144;5.430;2022-12-17T05:13:08;45.95;;;28.95;;
44189;SDS011;29856;52.144;5.430;2022-12-17T05:15:33;50.67;;;31.00;;
44189;SDS011;29856;52.144;5.430;2022-12-17T05:18:02;47.88;;;29.65;;
44189;SDS011;29856;52.144;5.430;2022-12-17T05:20:29;57.28;;;32.80;;
44189;SDS011;29856;52.144;5.430;2022-12-17T05:22:54;53.97;;;32.30;;
44189;SDS011;29856;52.144;5.430;2022-12-17T05:25:20;53.35;;;30.88;;
44189;SDS011;29856;52.144;5.430;2022-12-17T05:27:46;59.17;;;31.20;;
44189;SDS011;29856;52.144;5.430;2022-12-17T05:30:11;57.35;;;33.00;;
44189;SDS011;29856;52.144;5.430;2022-12-17T05:32:37;52.22;;;30.17;;
44189;SDS011;29856;52.144;5.430;2022-12-17T05:35:02;55.38;;;32.05;;
44189;SDS011;29856;52.144;5.430;2022-12-17T05:37:28;57.17;;;31.30;;
44189;SDS011;29856;52.144;5.430;2022-12-17T05:39:54;48.95;;;29.95;;
44189;SDS011;29856;52.144;5.430;2022-12-17T05:42:19;55.35;;;31.00;;
44189;SDS011;29856;52.144;5.430;2022-12-17T05:44:44;63.35;;;33.75;;
44189;SDS011;29856;52.144;5.430;2022-12-17T05:47:10;59.38;;;32.58;;
44189;SDS011;29856;52.144;5.430;2022-12-17T05:49:35;47.90;;;29.70;;
44189;SDS011;29856;52.144;5.430;2022-12-17T05:52:01;55.83;;;32.30;;
44189;SDS011;29856;52.144;5.430;2022-12-17T05:54:26;56.50;;;30.67;;
44189;SDS011;29856;52.144;5.430;2022-12-17T05:56:52;56.25;;;31.23;;
44189;SDS011;29856;52.144;5.430;2022-12-17T05:59:17;59.05;;;32.85;;
44189;SDS011;29856;52.144;5.430;2022-12-17T06:01:43;55.75;;;31.05;;
44189;SDS011;29856;52.144;5.430;2022-12-17T06:04:08;57.83;;;32.38;;
44189;SDS011;29856;52.144;5.430;2022-12-17T06:06:34;59.33;;;31.58;;
44189;SDS011;29856;52.144;5.430;2022-12-17T06:09:00;62.72;;;33.58;;
44189;SDS011;29856;52.144;5.430;2022-12-17T06:11:25;58.97;;;32.15;;
44189;SDS011;29856;52.144;5.430;2022-12-17T06:13:51;58.13;;;32.45;;
44189;SDS011;29856;52.144;5.430;2022-12-17T06:16:16;59.85;;;32.50;;
44189;SDS011;29856;52.144;5.430;2022-12-17T06:18:42;62.47;;;33.85;;
44189;SDS011;29856;52.144;5.430;2022-12-17T06:21:07;56.85;;;32.47;;
44189;SDS011;29856;52.144;5.430;2022-12-17T06:23:33;58.20;;;34.22;;
44189;SDS011;29856;52.144;5.430;2022-12-17T06:25:58;60.25;;;33.00;;
44189;SDS011;29856;52.144;5.430;2022-12-17T06:28:23;62.47;;;34.63;;
44189;SDS011;29856;52.144;5.430;2022-12-17T06:30:52;59.58;;;32.90;;
44189;SDS011;29856;52.144;5.430;2022-12-17T06:33:18;66.20;;;35.42;;
44189;SDS011;29856;52.144;5.430;2022-12-17T06:35:44;66.70;;;35.95;;
44189;SDS011;29856;52.144;5.430;2022-12-17T06:38:09;68.57;;;37.42;;
44189;SDS011;29856;52.144;5.430;2022-12-17T06:40:35;62.20;;;36.30;;
44189;SDS011;29856;52.144;5.430;2022-12-17T06:43:00;60.58;;;34.22;;
44189;SDS011;29856;52.144;5.430;2022-12-17T06:45:25;68.65;;;35.35;;
44189;SDS011;29856;52.144;5.430;2022-12-17T06:47:51;69.32;;;35.85;;
44189;SDS011;29856;52.144;5.430;2022-12-17T06:50:17;60.90;;;33.75;;
44189;SDS011;29856;52.144;5.430;2022-12-17T06:52:42;60.97;;;33.25;;
44189;SDS011;29856;52.144;5.430;2022-12-17T06:55:08;51.60;;;29.60;;
44189;SDS011;29856;52.144;5.430;2022-12-17T06:57:33;56.55;;;32.15;;
44189;SDS011;29856;52.144;5.430;2022-12-17T06:59:59;61.30;;;33.95;;
44189;SDS011;29856;52.144;5.430;2022-12-17T07:02:24;64.22;;;35.33;;
44189;SDS011;29856;52.144;5.430;2022-12-17T07:04:50;67.03;;;34.55;;
44189;SDS011;29856;52.144;5.430;2022-12-17T07:07:15;61.20;;;34.03;;
44189;SDS011;29856;52.144;5.430;2022-12-17T07:09:40;52.40;;;30.27;;
44189;SDS011;29856;52.144;5.430;2022-12-17T07:12:06;56.38;;;31.00;;
44189;SDS011;29856;52.144;5.430;2022-12-17T07:14:31;62.65;;;33.28;;
44189;SDS011;29856;52.144;5.430;2022-12-17T07:16:57;59.53;;;33.13;;
44189;SDS011;29856;52.144;5.430;2022-12-17T07:19:22;62.95;;;34.10;;
44189;SDS011;29856;52.144;5.430;2022-12-17T07:21:48;62.35;;;33.47;;
44189;SDS011;29856;52.144;5.430;2022-12-17T07:24:13;51.60;;;28.92;;
44189;SDS011;29856;52.144;5.430;2022-12-17T07:26:39;56.10;;;30.88;;
44189;SDS011;29856;52.144;5.430;2022-12-17T07:29:04;59.70;;;33.45;;
44189;SDS011;29856;52.144;5.430;2022-12-17T07:31:29;60.60;;;33.88;;
44189;SDS011;29856;52.144;5.430;2022-12-17T07:33:55;58.00;;;33.85;;
44189;SDS011;29856;52.144;5.430;2022-12-17T07:36:20;53.92;;;32.40;;
44189;SDS011;29856;52.144;5.430;2022-12-17T07:38:46;60.67;;;32.28;;
44189;SDS011;29856;52.144;5.430;2022-12-17T07:41:11;54.72;;;31.52;;
44189;SDS011;29856;52.144;5.430;2022-12-17T07:43:37;61.85;;;32.08;;
44189;SDS011;29856;52.144;5.430;2022-12-17T07:46:02;56.05;;;29.75;;
44189;SDS011;29856;52.144;5.430;2022-12-17T07:48:28;58.38;;;32.75;;
44189;SDS011;29856;52.144;5.430;2022-12-17T07:50:53;61.00;;;34.95;;
44189;SDS011;29856;52.144;5.430;2022-12-17T07:53:18;65.35;;;34.85;;
44189;SDS011;29856;52.144;5.430;2022-12-17T07:55:44;55.65;;;33.13;;
44189;SDS011;29856;52.144;5.430;2022-12-17T07:58:10;55.97;;;32.60;;
44189;SDS011;29856;52.144;5.430;2022-12-17T08:00:35;59.90;;;34.20;;
44189;SDS011;29856;52.144;5.430;2022-12-17T08:03:04;68.35;;;37.17;;
44189;SDS011;29856;52.144;5.430;2022-12-17T08:05:29;71.30;;;37.78;;
44189;SDS011;29856;52.144;5.430;2022-12-17T08:07:55;69.82;;;36.63;;
44189;SDS011;29856;52.144;5.430;2022-12-17T08:10:20;70.60;;;38.67;;
44189;SDS011;29856;52.144;5.430;2022-12-17T08:12:52;60.53;;;33.42;;
44189;SDS011;29856;52.144;5.430;2022-12-17T08:15:22;68.65;;;36.13;;
44189;SDS011;29856;52.144;5.430;2022-12-17T08:17:47;61.17;;;32.92;;
44189;SDS011;29856;52.144;5.430;2022-12-17T08:20:13;69.45;;;35.60;;
44189;SDS011;29856;52.144;5.430;2022-12-17T08:22:38;65.82;;;35.28;;
44189;SDS011;29856;52.144;5.430;2022-12-17T08:25:04;65.55;;;36.35;;
44189;SDS011;29856;52.144;5.430;2022-12-17T08:27:29;65.20;;;34.63;;
44189;SDS011;29856;52.144;5.430;2022-12-17T08:29:55;65.15;;;35.90;;
44189;SDS011;29856;52.144;5.430;2022-12-17T08:32:20;67.38;;;37.33;;
44189;SDS011;29856;52.144;5.430;2022-12-17T08:34:46;72.90;;;37.70;;
44189;SDS011;29856;52.144;5.430;2022-12-17T08:37:12;74.72;;;37.42;;
44189;SDS011;29856;52.144;5.430;2022-12-17T08:39:37;65.93;;;35.17;;
44189;SDS011;29856;52.144;5.430;2022-12-17T08:42:03;70.88;;;37.97;;
44189;SDS011;29856;52.144;5.430;2022-12-17T08:44:29;72.35;;;36.38;;
44189;SDS011;29856;52.144;5.430;2022-12-17T08:46:54;62.50;;;35.50;;
44189;SDS011;29856;52.144;5.430;2022-12-17T08:49:20;77.00;;;40.50;;
44189;SDS011;29856;52.144;5.430;2022-12-17T08:51:45;74.10;;;41.25;;
44189;SDS011;29856;52.144;5.430;2022-12-17T08:54:11;72.85;;;38.47;;
44189;SDS011;29856;52.144;5.430;2022-12-17T08:56:36;76.22;;;38.15;;
44189;SDS011;29856;52.144;5.430;2022-12-17T08:59:02;75.70;;;37.00;;
44189;SDS011;29856;52.144;5.430;2022-12-17T09:01:27;83.03;;;41.88;;
44189;SDS011;29856;52.144;5.430;2022-12-17T09:03:53;71.50;;;37.90;;
44189;SDS011;29856;52.144;5.430;2022-12-17T09:06:18;78.00;;;41.65;;
44189;SDS011;29856;52.144;5.430;2022-12-17T09:08:44;76.20;;;39.40;;
44189;SDS011;29856;52.144;5.430;2022-12-17T09:11:10;70.45;;;37.42;;
44189;SDS011;29856;52.144;5.430;2022-12-17T09:13:35;77.85;;;38.28;;
44189;SDS011;29856;52.144;5.430;2022-12-17T09:16:01;79.72;;;40.38;;
44189;SDS011;29856;52.144;5.430;2022-12-17T09:18:26;76.40;;;38.15;;
44189;SDS011;29856;52.144;5.430;2022-12-17T09:20:52;80.80;;;40.58;;
44189;SDS011;29856;52.144;5.430;2022-12-17T09:23:18;79.30;;;38.47;;
44189;SDS011;29856;52.144;5.430;2022-12-17T09:25:50;69.72;;;35.55;;
44189;SDS011;29856;52.144;5.430;2022-12-17T09:28:17;75.68;;;38.33;;
44189;SDS011;29856;52.144;5.430;2022-12-17T09:30:42;76.60;;;37.92;;
44189;SDS011;29856;52.144;5.430;2022-12-17T09:33:12;77.53;;;39.72;;
44189;SDS011;29856;52.144;5.430;2022-12-17T09:35:41;68.40;;;35.65;;
44189;SDS011;29856;52.144;5.430;2022-12-17T09:38:07;71.43;;;37.65;;
44189;SDS011;29856;52.144;5.430;2022-12-17T09:40:35;67.38;;;35.17;;
44189;SDS011;29856;52.144;5.430;2022-12-17T09:43:02;71.65;;;36.72;;
44189;SDS011;29856;52.144;5.430;2022-12-17T09:45:37;66.80;;;35.03;;
44189;SDS011;29856;52.144;5.430;2022-12-17T09:48:21;73.82;;;36.38;;
44189;SDS011;29856;52.144;5.430;2022-12-17T09:50:56;69.55;;;36.92;;
44189;SDS011;29856;52.144;5.430;2022-12-17T09:54:09;75.22;;;37.65;;
44189;SDS011;29856;52.144;5.430;2022-12-17T09:56:16;73.28;;;36.88;;
44189;SDS011;29856;52.144;5.430;2022-12-17T09:58:45;73.60;;;37.40;;
44189;SDS011;29856;52.144;5.430;2022-12-17T10:01:14;75.75;;;36.40;;
44189;SDS011;29856;52.144;5.430;2022-12-17T10:03:42;78.30;;;37.40;;
44189;SDS011;29856;52.144;5.430;2022-12-17T10:06:11;79.97;;;37.88;;
44189;SDS011;29856;52.144;5.430;2022-12-17T10:08:40;73.32;;;37.08;;
44189;SDS011;29856;52.144;5.430;2022-12-17T10:11:17;69.25;;;34.97;;
44189;SDS011;29856;52.144;5.430;2022-12-17T10:13:45;73.97;;;38.63;;
44189;SDS011;29856;52.144;5.430;2022-12-17T10:16:17;71.15;;;36.72;;
44189;SDS011;29856;52.144;5.430;2022-12-17T10:18:50;67.80;;;34.78;;
44189;SDS011;29856;52.144;5.430;2022-12-17T10:21:16;71.43;;;35.75;;
44189;SDS011;29856;52.144;5.430;2022-12-17T10:23:43;73.43;;;36.70;;
44189;SDS011;29856;52.144;5.430;2022-12-17T10:26:08;70.57;;;37.22;;
44189;SDS011;29856;52.144;5.430;2022-12-17T10:28:38;73.38;;;36.65;;
44189;SDS011;29856;52.144;5.430;2022-12-17T10:31:18;69.82;;;36.42;;
44189;SDS011;29856;52.144;5.430;2022-12-17T10:33:45;73.20;;;37.17;;
44189;SDS011;29856;52.144;5.430;2022-12-17T10:36:21;77.38;;;38.42;;
44189;SDS011;29856;52.144;5.430;2022-12-17T10:38:52;79.28;;;40.33;;
44189;SDS011;29856;52.144;5.430;2022-12-17T10:41:26;76.40;;;40.58;;
44189;SDS011;29856;52.144;5.430;2022-12-17T10:43:53;73.80;;;37.70;;
44189;SDS011;29856;52.144;5.430;2022-12-17T10:46:28;76.63;;;38.47;;
44189;SDS011;29856;52.144;5.430;2022-12-17T10:49:02;78.30;;;38.83;;
44189;SDS011;29856;52.144;5.430;2022-12-17T10:51:36;76.68;;;38.65;;
44189;SDS011;29856;52.144;5.430;2022-12-17T10:54:04;72.78;;;38.00;;
44189;SDS011;29856;52.144;5.430;2022-12-17T10:56:51;79.53;;;39.75;;
44189;SDS011;29856;52.144;5.430;2022-12-17T10:59:50;78.97;;;36.75;;
44189;SDS011;29856;52.144;5.430;2022-12-17T11:02:14;72.25;;;37.35;;
44189;SDS011;29856;52.144;5.430;2022-12-17T11:04:50;72.55;;;36.60;;
44189;SDS011;29856;52.144;5.430;2022-12-17T11:07:35;73.80;;;37.15;;
44189;SDS011;29856;52.144;5.430;2022-12-17T11:10:04;72.03;;;36.58;;
44189;SDS011;29856;52.144;5.430;2022-12-17T11:12:41;68.35;;;35.65;;
44189;SDS011;29856;52.144;5.430;2022-12-17T11:15:16;72.00;;;37.20;;
44189;SDS011;29856;52.144;5.430;2022-12-17T11:17:48;77.38;;;37.00;;
44189;SDS011;29856;52.144;5.430;2022-12-17T11:20:24;73.75;;;37.17;;
44189;SDS011;29856;52.144;5.430;2022-12-17T11:22:58;74.80;;;37.63;;
44189;SDS011;29856;52.144;5.430;2022-12-17T11:28:16;70.10;;;35.30;;
44189;SDS011;29856;52.144;5.430;2022-12-17T11:30:57;66.28;;;33.80;;
44189;SDS011;29856;52.144;5.430;2022-12-17T11:33:35;63.72;;;33.28;;
44189;SDS011;29856;52.144;5.430;2022-12-17T11:36:28;73.28;;;34.95;;
44189;SDS011;29856;52.144;5.430;2022-12-17T11:50:21;68.88;;;33.22;;
44189;SDS011;29856;52.144;5.430;2022-12-17T11:53:05;66.30;;;33.83;;
44189;SDS011;29856;52.144;5.430;2022-12-17T11:55:56;69.28;;;34.22;;
44189;SDS011;29856;52.144;5.430;2022-12-17T11:58:42;65.65;;;33.90;;
44189;SDS011;29856;52.144;5.430;2022-12-17T12:01:21;71.32;;;33.72;;
44189;SDS011;29856;52.144;5.430;2022-12-17T12:03:50;75.53;;;35.22;;
44189;SDS011;29856;52.144;5.430;2022-12-17T12:06:38;64.22;;;32.70;;
44189;SDS011;29856;52.144;5.430;2022-12-17T12:09:16;70.80;;;34.60;;
44189;SDS011;29856;52.144;5.430;2022-12-17T12:12:01;77.13;;;37.88;;
44189;SDS011;29856;52.144;5.430;2022-12-17T12:14:38;67.82;;;34.40;;
44189;SDS011;29856;52.144;5.430;2022-12-17T12:20:30;64.53;;;32.40;;
44189;SDS011;29856;52.144;5.430;2022-12-17T12:28:52;75.15;;;35.50;;
44189;SDS011;29856;52.144;5.430;2022-12-17T12:33:57;81.00;;;37.67;;
44189;SDS011;29856;52.144;5.430;2022-12-17T12:36:26;82.50;;;36.90;;
44189;SDS011;29856;52.144;5.430;2022-12-17T12:38:53;79.05;;;38.28;;
44189;SDS011;29856;52.144;5.430;2022-12-17T12:44:38;78.80;;;36.40;;
44189;SDS011;29856;52.144;5.430;2022-12-17T12:47:12;78.70;;;37.40;;
44189;SDS011;29856;52.144;5.430;2022-12-17T12:50:00;84.68;;;38.50;;
44189;SDS011;29856;52.144;5.430;2022-12-17T12:52:27;83.00;;;37.13;;
44189;SDS011;29856;52.144;5.430;2022-12-17T12:54:53;79.15;;;38.17;;
44189;SDS011;29856;52.144;5.430;2022-12-17T12:59:56;85.47;;;40.15;;
44189;SDS011;29856;52.144;5.430;2022-12-17T13:02:23;79.88;;;37.70;;
44189;SDS011;29856;52.144;5.430;2022-12-17T13:04:51;82.53;;;37.90;;
44189;SDS011;29856;52.144;5.430;2022-12-17T13:07:25;75.35;;;36.60;;
44189;SDS011;29856;52.144;5.430;2022-12-17T13:09:54;77.57;;;36.28;;
44189;SDS011;29856;52.144;5.430;2022-12-17T13:15:29;76.70;;;34.77;;
44189;SDS011;29856;52.144;5.430;2022-12-17T13:18:05;77.95;;;36.85;;
44189;SDS011;29856;52.144;5.430;2022-12-17T13:20:58;79.32;;;38.55;;
44189;SDS011;29856;52.144;5.430;2022-12-17T13:28:43;75.75;;;35.35;;
44189;SDS011;29856;52.144;5.430;2022-12-17T13:31:18;72.18;;;35.58;;
44189;SDS011;29856;52.144;5.430;2022-12-17T13:34:00;75.63;;;37.45;;
44189;SDS011;29856;52.144;5.430;2022-12-17T13:36:49;81.60;;;38.00;;
44189;SDS011;29856;52.144;5.430;2022-12-17T13:39:41;82.45;;;37.63;;
44189;SDS011;29856;52.144;5.430;2022-12-17T13:42:34;84.82;;;38.78;;
44189;SDS011;29856;52.144;5.430;2022-12-17T13:45:00;78.82;;;36.85;;
44189;SDS011;29856;52.144;5.430;2022-12-17T13:47:28;77.00;;;36.13;;
44189;SDS011;29856;52.144;5.430;2022-12-17T13:49:56;74.07;;;36.13;;
44189;SDS011;29856;52.144;5.430;2022-12-17T13:52:24;82.43;;;37.33;;
44189;SDS011;29856;52.144;5.430;2022-12-17T13:54:53;82.97;;;38.65;;
44189;SDS011;29856;52.144;5.430;2022-12-17T13:57:30;83.20;;;39.88;;
44189;SDS011;29856;52.144;5.430;2022-12-17T13:59:56;77.05;;;39.63;;
44189;SDS011;29856;52.144;5.430;2022-12-17T14:05:00;86.72;;;42.08;;
44189;SDS011;29856;52.144;5.430;2022-12-17T14:07:28;78.97;;;39.03;;
44189;SDS011;29856;52.144;5.430;2022-12-17T14:09:54;80.93;;;39.30;;
44189;SDS011;29856;52.144;5.430;2022-12-17T14:12:22;83.30;;;40.17;;
44189;SDS011;29856;52.144;5.430;2022-12-17T14:14:51;81.80;;;38.40;;
44189;SDS011;29856;52.144;5.430;2022-12-17T14:17:34;82.00;;;38.25;;
44189;SDS011;29856;52.144;5.430;2022-12-17T14:20:24;76.20;;;36.10;;
44189;SDS011;29856;52.144;5.430;2022-12-17T14:22:53;65.47;;;33.03;;
44189;SDS011;29856;52.144;5.430;2022-12-17T14:25:25;76.47;;;36.13;;
44189;SDS011;29856;52.144;5.430;2022-12-17T14:28:01;74.00;;;36.88;;
44189;SDS011;29856;52.144;5.430;2022-12-17T14:33:04;76.68;;;38.97;;
44189;SDS011;29856;52.144;5.430;2022-12-17T14:35:50;76.68;;;38.15;;
44189;SDS011;29856;52.144;5.430;2022-12-17T14:38:17;80.90;;;40.38;;
44189;SDS011;29856;52.144;5.430;2022-12-17T14:40:43;75.70;;;37.75;;
44189;SDS011;29856;52.144;5.430;2022-12-17T14:43:08;68.47;;;32.47;;
44189;SDS011;29856;52.144;5.430;2022-12-17T14:45:37;62.47;;;32.90;;
44189;SDS011;29856;52.144;5.430;2022-12-17T14:48:03;69.45;;;37.08;;
44189;SDS011;29856;52.144;5.430;2022-12-17T14:50:32;61.63;;;32.45;;
44189;SDS011;29856;52.144;5.430;2022-12-17T14:53:00;66.55;;;36.28;;
44189;SDS011;29856;52.144;5.430;2022-12-17T14:58:06;74.22;;;37.70;;
44189;SDS011;29856;52.144;5.430;2022-12-17T15:00:38;68.78;;;37.20;;
44189;SDS011;29856;52.144;5.430;2022-12-17T15:03:08;77.05;;;38.78;;
44189;SDS011;29856;52.144;5.430;2022-12-17T15:05:37;77.75;;;37.58;;
44189;SDS011;29856;52.144;5.430;2022-12-17T15:08:03;67.72;;;36.20;;
44189;SDS011;29856;52.144;5.430;2022-12-17T15:10:29;75.18;;;39.08;;
44189;SDS011;29856;52.144;5.430;2022-12-17T15:12:55;78.93;;;38.58;;
44189;SDS011;29856;52.144;5.430;2022-12-17T15:15:21;77.30;;;38.63;;
44189;SDS011;29856;52.144;5.430;2022-12-17T15:17:46;76.47;;;38.08;;
44189;SDS011;29856;52.144;5.430;2022-12-17T15:20:16;76.82;;;40.03;;